TimeCST,TemperatureF,Dew PointF,Humidity,Sea Level PressureIn,VisibilityMPH,Wind Direction,Wind SpeedMPH,Gust SpeedMPH,PrecipitationIn,Events,Conditions,WindDirDegrees,DateUTC
12:15 AM,66.0,66.0,100,29.98,2.0,South,11.5,18.4,N/A,,Overcast,170,2014-01-11 06:15:00
12:35 AM,65.8,65.8,100,29.98,2.5,South,10.4,-,N/A,,Overcast,170,2014-01-11 06:35:00
12:55 AM,65.8,65.8,100,29.96,2.0,SSE,10.4,-,N/A,,Overcast,160,2014-01-11 06:55:00
1:15 AM,66.2,66.2,100,29.96,1.2,South,10.4,-,N/A,,Overcast,170,2014-01-11 07:15:00
1:35 AM,66.4,66.4,100,29.96,1.2,South,9.2,-,0.01,Rain,Rain,180,2014-01-11 07:35:00
1:55 AM,66.6,66.6,100,29.96,5.0,South,13.8,19.6,0.10,Rain,Light Rain,180,2014-01-11 07:55:00
2:15 AM,66.4,66.4,100,29.95,7.0,South,12.7,17.3,0.05,Rain,Rain,180,2014-01-11 08:15:00
2:35 AM,66.4,66.4,100,29.93,7.0,South,13.8,21.9,0.07,Rain,Light Rain,180,2014-01-11 08:35:00
2:55 AM,66.6,66.6,100,29.91,7.0,South,12.7,21.9,0.07,Rain,Light Rain,170,2014-01-11 08:55:00
3:15 AM,66.9,66.9,100,29.92,4.0,South,10.4,18.4,0.01,,Overcast,180,2014-01-11 09:15:00
3:35 AM,67.1,67.1,100,29.92,7.0,South,13.8,19.6,0.01,,Overcast,190,2014-01-11 09:35:00
3:55 AM,66.7,66.7,100,29.91,7.0,South,15.0,20.7,0.01,,Overcast,180,2014-01-11 09:55:00
4:15 AM,67.1,67.1,100,29.90,1.5,South,16.1,24.2,N/A,,Overcast,180,2014-01-11 10:15:00
4:35 AM,67.1,67.1,100,29.90,5.0,South,9.2,20.7,N/A,,Overcast,190,2014-01-11 10:35:00
4:55 AM,67.5,67.5,100,29.90,2.0,South,10.4,-,N/A,,Overcast,190,2014-01-11 10:55:00
5:15 AM,67.3,67.3,100,29.89,5.0,South,12.7,19.6,N/A,,Overcast,190,2014-01-11 11:15:00
5:35 AM,67.3,67.3,100,29.87,0.8,South,8.1,17.3,N/A,Rain,Light Rain,190,2014-01-11 11:35:00
5:55 AM,67.3,67.3,100,29.88,5.0,South,11.5,17.3,N/A,,Overcast,190,2014-01-11 11:55:00
6:15 AM,67.3,67.3,100,29.88,10.0,South,10.4,17.3,N/A,,Overcast,180,2014-01-11 12:15:00
6:35 AM,66.7,66.7,100,29.88,10.0,South,10.4,17.3,N/A,,Overcast,180,2014-01-11 12:35:00
6:55 AM,66.2,66.2,100,29.88,7.0,South,10.4,-,N/A,,Overcast,180,2014-01-11 12:55:00
7:15 AM,66.2,66.2,100,29.87,7.0,South,8.1,-,N/A,,Overcast,180,2014-01-11 13:15:00
7:35 AM,66.4,66.4,100,29.88,7.0,South,9.2,-,N/A,,Overcast,180,2014-01-11 13:35:00
7:55 AM,66.7,66.7,100,29.89,2.5,South,11.5,17.3,0.06,Rain,Heavy Rain,190,2014-01-11 13:55:00
8:15 AM,66.7,66.7,100,29.88,10.0,South,12.7,19.6,0.04,,Overcast,190,2014-01-11 14:15:00
8:35 AM,66.4,66.2,99,29.89,5.0,SSW,9.2,17.3,0.05,Rain,Rain,200,2014-01-11 14:35:00
8:55 AM,66.2,66.0,99,29.90,7.0,SW,10.4,21.9,0.07,Rain,Light Rain,220,2014-01-11 14:55:00
9:15 AM,66.4,66.2,99,29.90,2.5,SSW,13.8,23.0,0.02,Rain,Heavy Rain,200,2014-01-11 15:15:00
9:35 AM,67.8,67.8,100,29.91,7.0,SW,15.0,28.8,0.06,,Overcast,230,2014-01-11 15:35:00
9:55 AM,66.4,65.1,96,29.94,2.5,SW,27.6,41.4,0.09,Rain,Heavy Rain,230,2014-01-11 15:55:00
10:15 AM,64.4,63.5,97,29.92,7.0,SW,5.8,19.6,0.02,Rain,Light Rain,230,2014-01-11 16:15:00
10:35 AM,64.4,63.9,98,29.90,10.0,SW,5.8,-,0.04,Rain,Rain,230,2014-01-11 16:35:00
10:55 AM,64.4,63.9,98,29.90,7.0,WSW,8.1,17.3,0.06,Rain,Rain,250,2014-01-11 16:55:00
11:15 AM,64.0,63.5,98,29.88,5.0,WSW,9.2,-,0.01,Rain,Rain,240,2014-01-11 17:15:00
11:35 AM,63.9,63.5,99,29.89,10.0,SW,5.8,-,0.03,Rain,Rain,230,2014-01-11 17:35:00
11:55 AM,63.9,63.5,99,29.87,7.0,WSW,4.6,16.1,0.05,Rain,Rain,250,2014-01-11 17:55:00
12:15 PM,63.7,63.5,99,29.84,10.0,WNW,3.5,-,0.01,Rain,Light Rain,290,2014-01-11 18:15:00
12:35 PM,64.0,63.5,98,29.83,10.0,West,6.9,-,0.03,,Overcast,280,2014-01-11 18:35:00
12:55 PM,65.3,63.5,94,29.82,10.0,West,6.9,-,0.05,,Mostly Cloudy,280,2014-01-11 18:55:00
1:15 PM,67.5,63.9,88,29.83,10.0,West,8.1,-,0.01,,Scattered Clouds,270,2014-01-11 19:15:00
1:35 PM,68.2,62.6,82,29.82,10.0,West,8.1,-,0.03,,Mostly Cloudy,280,2014-01-11 19:35:00
1:55 PM,68.0,62.6,83,29.83,10.0,West,6.9,-,0.04,,Mostly Cloudy,270,2014-01-11 19:55:00
2:15 PM,68.0,62.6,83,29.83,10.0,West,3.5,-,N/A,,Scattered Clouds,280,2014-01-11 20:15:00
2:35 PM,67.6,61.7,81,29.83,10.0,West,3.5,-,0.01,,Clear,260,2014-01-11 20:35:00
2:55 PM,69.8,61.7,75,29.82,10.0,West,4.6,-,0.02,,Clear,260,2014-01-11 20:55:00
3:15 PM,70.2,61.2,73,29.82,10.0,West,3.5,-,N/A,,Clear,260,2014-01-11 21:15:00
3:35 PM,68.9,61.7,78,29.83,10.0,West,3.5,-,0.01,,Scattered Clouds,280,2014-01-11 21:35:00
3:55 PM,70.3,57.2,63,29.83,10.0,West,9.2,18.4,0.02,,Scattered Clouds,260,2014-01-11 21:55:00
4:15 PM,68.5,55.6,63,29.84,10.0,SW,6.9,18.4,N/A,,Clear,230,2014-01-11 22:15:00
4:35 PM,66.2,61.3,84,29.86,10.0,WSW,4.6,-,0.01,,Mostly Cloudy,250,2014-01-11 22:35:00
4:55 PM,65.5,60.3,83,29.87,10.0,Calm,Calm,-,0.01,,Overcast,0,2014-01-11 22:55:00
5:15 PM,64.8,57.9,78,29.87,10.0,Calm,Calm,-,N/A,,Mostly Cloudy,0,2014-01-11 23:15:00
5:35 PM,63.5,57.0,79,29.88,10.0,West,3.5,-,N/A,,Mostly Cloudy,260,2014-01-11 23:35:00
5:55 PM,63.1,53.4,71,29.89,10.0,West,5.8,-,N/A,,Scattered Clouds,280,2014-01-11 23:55:00
6:15 PM,62.4,52.0,69,29.91,10.0,NW,5.8,-,N/A,,Clear,310,2014-01-12 00:15:00
6:35 PM,60.8,51.8,72,29.92,10.0,WNW,3.5,-,N/A,,Clear,300,2014-01-12 00:35:00
6:50 PM,59.9,50.9,72,29.93,10.0,WNW,3.5,-,N/A,,Clear,290,2014-01-12 00:50:00
7:15 PM,59.2,47.5,65,29.95,10.0,NW,6.9,-,0.01,,Clear,310,2014-01-12 01:15:00
7:35 PM,58.3,44.6,60,29.96,10.0,West,4.6,-,0.01,,Clear,280,2014-01-12 01:35:00
7:55 PM,58.1,40.6,52,29.98,10.0,WNW,8.1,-,0.01,,Clear,300,2014-01-12 01:55:00
8:15 PM,57.6,36.9,46,30.00,10.0,WNW,6.9,-,N/A,,Clear,300,2014-01-12 02:15:00
8:35 PM,56.8,34.5,43,30.01,10.0,WNW,6.9,-,N/A,,Clear,300,2014-01-12 02:35:00
8:55 PM,55.8,33.6,43,30.02,10.0,WNW,5.8,-,N/A,,Clear,290,2014-01-12 02:55:00
9:15 PM,54.5,33.3,45,30.03,10.0,WNW,4.6,-,N/A,,Clear,290,2014-01-12 03:15:00
9:35 PM,53.6,33.1,46,30.05,10.0,WNW,9.2,-,0.01,,Clear,300,2014-01-12 03:35:00
9:55 PM,53.4,32.7,45,30.05,10.0,NW,9.2,-,0.01,,Clear,310,2014-01-12 03:55:00
10:15 PM,53.2,32.4,45,30.06,10.0,WNW,5.8,-,N/A,,Clear,300,2014-01-12 04:15:00
10:35 PM,51.8,32.9,49,30.07,10.0,NW,8.1,-,N/A,,Clear,310,2014-01-12 04:35:00
10:55 PM,51.1,33.8,52,30.07,10.0,NW,5.8,-,N/A,,Clear,310,2014-01-12 04:55:00
11:15 PM,50.0,33.8,54,30.08,10.0,NW,3.5,-,N/A,,Clear,320,2014-01-12 05:15:00
11:35 PM,49.6,33.4,54,30.08,10.0,WNW,3.5,-,N/A,,Clear,300,2014-01-12 05:35:00
11:55 PM,49.1,33.3,54,30.08,10.0,WNW,4.6,-,N/A,,Clear,300,2014-01-12 05:55:00